Thief River Falls, MN (56701)

8:35 AM CDT on July 25, 2016 (GMT -0500)
Thief River Falls Regional | | Change Station

Elev 1115 ft 48.06 °N, 96.18 °W | Updated 39 minutes ago

Clear
Clear
64 °F
Feels Like 64 °F
N
4
Wind Variable Wind from WSW

Today
High -- | Low -- °F
--% Chance of Precip.
Yesterday
High -- | Low -- °F
Precip. -- in
Pressure 30.04 in
Visibility 10.0 miles
Clouds Clear
Dew Point 61 °F
Humidity 90%
Rainfall 0.00 in
Snow Depth Not available.
5:52 AM 9:09 PM
Waning Gibbous, 66% visible
METAR KTVF 251256Z AUTO 24003KT 10SM CLR 18/16 A3004 RMK AO2 SLP171 T01780161
Pressure 30.04 in
Visibility 10.0 miles
Clouds Clear
Dew Point 61 °F
Humidity 90%
Rainfall 0.00 in
Snow Depth Not available.
5:52 AM 9:09 PM
Waning Gibbous, 66% visible
METAR KTVF 251256Z AUTO 24003KT 10SM CLR 18/16 A3004 RMK AO2 SLP171 T01780161

10-Day Weather Forecast

Almanac

Astronomy

Jul. 25, 2016 Rise Set
Actual Time
Civil Twilight
Nautical Twilight
Astronomical Twilight
Moon
Length of Visible Light
Length of Day
Tomorrow will be .
, % of the Moon is Illuminated

Today's Extremes

State Highs State Lows

Community

WunderPhotos

Upload Photos

1,927,300 photos uploaded!

WunderBlog® & News

Nearby

Air Quality

  Air Quality AQ Index Pollutant
Not available.

Snow Depth

Station Depth Elevation

Earthquake Activity

City Distance Mag. Time & Date
Minimum magnitude displayed is 2.5.

Coastal Water Temperatures

Place Temperature

Stations

Nearby Weather Stations

Station Location Temp. Windchill Dew Point Humidity Wind Precip. Elev Updated Type
                   

Watches & Warnings

There are currently no watches in effect.